Time;durP1;ratioP1;P1;durP2;ratioP2;P2;SDS_P1;SDS_P2;PMS_P1;PMS_P2;Temp;Humidity;BMP_temperature;BMP_pressure;BME280_temperature;BME280_humidity;BME280_pressure;Samples;Min_cycle;Max_cycle;Signal;HPM_P1;HPM_P2
2023/03/13 00:01:50;;;;;;;13.63;4.03;;;;;;;17.27;52.80;99828.94;5109766;28;20165;-58
2023/03/13 00:04:16;;;;;;;13.53;3.13;;;;;;;17.36;52.60;99829.44;5106712;28;20262;-58
2023/03/13 00:06:41;;;;;;;12.80;3.47;;;;;;;17.39;52.67;99827.88;5089462;28;20170;-58
2023/03/13 00:09:08;;;;;;;16.37;3.00;;;;;;;17.40;52.77;99826.72;5105792;28;20212;-58
2023/03/13 00:11:34;;;;;;;9.13;3.50;;;;;;;17.40;52.77;99816.09;5108187;28;20714;-58
2023/03/13 00:14:01;;;;;;;7.40;2.50;;;;;;;17.37;52.94;99805.44;5108474;28;20426;-58
2023/03/13 00:16:27;;;;;;;11.07;4.03;;;;;;;17.33;52.96;99801.72;5112424;28;20427;-58
2023/03/13 00:18:53;;;;;;;13.43;3.13;;;;;;;17.28;53.32;99802.03;5104710;28;20485;-58
2023/03/13 00:21:20;;;;;;;13.40;3.47;;;;;;;17.24;53.40;99804.00;5108271;28;20170;-58
2023/03/13 00:23:46;;;;;;;10.60;3.47;;;;;;;17.23;53.09;99782.41;5110013;28;20185;-58
2023/03/13 00:26:13;;;;;;;17.37;3.43;;;;;;;17.23;52.97;99788.09;5108556;28;20492;-57
2023/03/13 00:28:39;;;;;;;11.37;2.90;;;;;;;17.23;53.09;99782.41;5109646;28;20281;-58
2023/03/13 00:31:05;;;;;;;8.87;2.93;;;;;;;17.21;53.65;99778.28;5109860;28;21262;-58
2023/03/13 00:33:33;;;;;;;11.70;3.43;;;;;;;17.19;53.59;99766.41;5109380;28;20243;-58
2023/03/13 00:36:00;;;;;;;11.27;3.03;;;;;;;17.21;53.63;99761.19;5111996;28;20434;-59
2023/03/13 00:38:26;;;;;;;16.10;2.97;;;;;;;17.21;53.70;99767.69;5108367;28;20415;-58
2023/03/13 00:40:58;;;;;;;18.73;3.57;;;;;;;17.19;53.70;99757.88;5108871;28;20477;-58
2023/03/13 00:43:24;;;;;;;11.83;3.13;;;;;;;17.19;53.70;99757.88;5110168;28;20422;-59
2023/03/13 00:45:49;;;;;;;15.10;2.93;;;;;;;17.20;53.52;99748.94;5109516;28;20805;-58
2023/03/13 00:48:14;;;;;;;11.60;3.00;;;;;;;17.16;53.72;99750.09;5109728;28;20630;-58
2023/03/13 00:50:40;;;;;;;7.30;2.40;;;;;;;17.16;53.54;99739.50;5101840;28;20239;-58
2023/03/13 00:53:05;;;;;;;10.90;2.40;;;;;;;17.18;53.40;99747.66;5109283;28;20197;-58
2023/03/13 00:55:31;;;;;;;8.90;2.87;;;;;;;17.23;53.33;99738.78;5110417;28;20177;-58
2023/03/13 00:57:56;;;;;;;9.60;3.10;;;;;;;17.23;53.07;99736.75;5112708;28;20234;-58
2023/03/13 01:00:21;;;;;;;12.67;2.90;;;;;;;17.24;53.41;99729.84;5113160;28;20186;-59
2023/03/13 01:02:47;;;;;;;14.43;2.70;;;;;;;17.20;53.66;99723.25;5113129;28;20589;-58
2023/03/13 01:05:12;;;;;;;15.40;1.90;;;;;;;17.22;53.23;99729.41;5113126;28;20217;-58
2023/03/13 01:07:38;;;;;;;6.80;2.40;;;;;;;17.22;53.34;99728.59;5112492;28;20239;-59
2023/03/13 01:10:03;;;;;;;11.23;3.57;;;;;;;17.23;53.55;99731.06;5110681;28;20210;-58
2023/03/13 01:12:29;;;;;;;7.93;2.80;;;;;;;17.22;53.61;99722.88;5111996;28;20297;-59
2023/03/13 01:14:54;;;;;;;9.63;2.90;;;;;;;17.25;53.36;99730.69;5112776;28;20185;-57
2023/03/13 01:17:20;;;;;;;12.67;3.50;;;;;;;17.25;53.32;99722.91;5112260;28;20197;-58
2023/03/13 01:19:45;;;;;;;14.90;3.17;;;;;;;17.22;53.45;99720.84;5110608;28;20186;-58
2023/03/13 01:22:11;;;;;;;8.60;3.13;;;;;;;17.24;53.44;99712.72;5098501;28;20174;-58
2023/03/13 01:24:37;;;;;;;8.30;2.63;;;;;;;17.21;53.56;99716.34;5114677;27;20207;-58
2023/03/13 01:27:02;;;;;;;10.03;2.97;;;;;;;17.19;53.37;99700.81;5112867;28;20174;-58
2023/03/13 01:29:27;;;;;;;9.30;2.93;;;;;;;17.23;53.47;99708.22;5110583;28;20209;-58
2023/03/13 01:31:53;;;;;;;10.23;2.10;;;;;;;17.19;53.56;99701.66;5111356;28;20185;-59
2023/03/13 01:34:21;;;;;;;10.87;2.70;;;;;;;17.18;53.47;99702.88;5112622;28;20652;-57
2023/03/13 01:36:49;;;;;;;8.77;2.80;;;;;;;17.19;53.63;99703.66;5112534;28;20181;-58
2023/03/13 01:39:15;;;;;;;8.10;3.40;;;;;;;17.15;53.78;99703.63;5099405;28;20555;-58
2023/03/13 01:41:40;;;;;;;9.43;2.93;;;;;;;17.16;53.83;99695.91;5091995;28;20491;-58
2023/03/13 01:44:17;;;;;;;7.00;2.67;;;;;;;17.17;53.44;99691.84;5100057;28;20181;-57
2023/03/13 01:46:42;;;;;;;11.13;3.07;;;;;;;17.21;53.40;99695.56;5110971;28;20180;-58
2023/03/13 01:49:19;;;;;;;7.03;2.43;;;;;;;17.23;53.48;99690.28;5111391;28;20463;-59
2023/03/13 01:52:07;;;;;;;6.70;2.50;;;;;;;17.21;53.48;99684.97;5109500;28;20937;-59
2023/03/13 01:54:45;;;;;;;7.50;2.50;;;;;;;17.19;53.72;99684.53;5105832;28;20488;-58
2023/03/13 01:57:17;;;;;;;10.20;2.67;;;;;;;17.22;53.34;99678.06;5111527;28;20446;-58
2023/03/13 02:00:06;;;;;;;7.87;2.90;;;;;;;17.18;53.47;99671.50;5110431;28;20422;-58
2023/03/13 02:02:32;;;;;;;8.00;2.23;;;;;;;17.18;53.95;99670.66;5111561;28;20461;-59
2023/03/13 02:04:59;;;;;;;9.20;2.43;;;;;;;17.17;53.45;99669.84;5111934;28;20439;-58
2023/03/13 02:07:35;;;;;;;8.50;3.00;;;;;;;17.16;53.77;99667.38;5111584;27;20176;-58
2023/03/13 02:10:01;;;;;;;6.57;2.07;;;;;;;17.14;53.56;99655.53;5098092;28;20467;-58
2023/03/13 02:12:31;;;;;;;7.00;1.93;;;;;;;17.15;53.89;99652.28;5110225;28;20467;-58
2023/03/13 02:14:57;;;;;;;9.83;3.57;;;;;;;17.19;53.36;99656.00;5111409;28;20186;-59
2023/03/13 02:17:23;;;;;;;7.40;2.63;;;;;;;17.24;53.37;99643.44;5110337;28;20538;-58
2023/03/13 02:19:50;;;;;;;10.50;2.43;;;;;;;17.18;53.53;99640.13;5110344;28;20415;-58
2023/03/13 02:22:55;;;;;;;7.37;2.10;;;;;;;17.15;53.69;99628.66;5111114;28;20184;-58
2023/03/13 02:25:24;;;;;;;8.00;2.33;;;;;;;17.14;53.69;99636.38;5091767;28;20394;-58
2023/03/13 02:28:00;;;;;;;8.43;2.73;;;;;;;17.17;53.65;99629.09;5091317;28;20848;-57
2023/03/13 02:30:26;;;;;;;5.20;2.23;;;;;;;17.18;53.41;99620.16;5090025;28;20452;-58
2023/03/13 02:32:51;;;;;;;5.80;2.20;;;;;;;17.19;53.19;99613.22;5102909;28;20445;-58
2023/03/13 02:35:18;;;;;;;7.40;2.30;;;;;;;17.18;53.49;99602.19;5111723;28;20174;-59
2023/03/13 02:37:52;;;;;;;5.90;2.27;;;;;;;17.18;53.37;99594.47;5111395;28;20174;-58
2023/03/13 02:40:20;;;;;;;6.20;2.40;;;;;;;17.19;53.56;99593.25;5111880;27;20510;-59
2023/03/13 02:42:46;;;;;;;7.43;2.10;;;;;;;17.20;53.69;99589.19;5094669;28;20466;-58
2023/03/13 02:45:15;;;;;;;5.23;2.07;;;;;;;17.19;53.52;99586.72;5089600;28;20405;-59
2023/03/13 02:47:41;;;;;;;7.07;2.07;;;;;;;17.18;53.65;99588.78;5090912;28;20572;-58
2023/03/13 02:50:06;;;;;;;6.47;2.20;;;;;;;17.19;53.62;99579.00;5097183;28;20481;-58
2023/03/13 02:52:56;;;;;;;10.13;2.33;;;;;;;17.18;53.38;99579.38;5110464;28;20161;-59
2023/03/13 02:55:25;;;;;;;6.17;2.10;;;;;;;17.19;53.51;99581.03;5110794;28;20205;-59
2023/03/13 02:57:50;;;;;;;7.03;2.23;;;;;;;17.16;53.70;99582.63;5110541;28;20416;-59
2023/03/13 03:00:16;;;;;;;6.93;2.37;;;;;;;17.18;53.50;99585.91;5109427;28;20446;-58
2023/03/13 03:02:42;;;;;;;11.60;2.70;;;;;;;17.15;53.74;99594.44;5111009;28;20170;-59
2023/03/13 03:05:08;;;;;;;7.00;2.30;;;;;;;17.14;53.62;99585.06;5110374;28;21165;-58
2023/03/13 03:07:34;;;;;;;5.83;2.80;;;;;;;17.16;53.93;99581.81;5110677;28;20400;-58
2023/03/13 03:09:59;;;;;;;5.43;2.47;;;;;;;17.16;53.66;99579.78;5109908;28;20515;-59
2023/03/13 03:12:24;;;;;;;6.30;2.20;;;;;;;17.21;53.57;99576.56;5110505;28;20599;-59
2023/03/13 03:14:50;;;;;;;4.87;2.03;;;;;;;17.21;53.34;99584.31;5109820;28;20181;-58
2023/03/13 03:17:15;;;;;;;9.33;1.80;;;;;;;17.19;53.40;99573.31;5118213;27;20176;-58
2023/03/13 03:19:41;;;;;;;9.03;2.40;;;;;;;17.19;53.78;99575.31;5113415;27;20675;-58
2023/03/13 03:22:06;;;;;;;10.00;2.60;;;;;;;17.19;53.52;99563.91;5110715;28;20162;-58
2023/03/13 03:24:32;;;;;;;5.30;1.90;;;;;;;17.22;53.68;99568.84;5110703;28;20169;-59
2023/03/13 03:26:57;;;;;;;5.50;2.20;;;;;;;17.20;53.42;99574.13;5115771;27;20214;-60
2023/03/13 03:29:22;;;;;;;6.00;2.37;;;;;;;17.25;53.02;99579.50;5123525;27;20243;-59
2023/03/13 03:31:48;;;;;;;12.40;2.50;;;;;;;17.23;53.34;99579.88;5110073;28;20174;-58
2023/03/13 03:34:13;;;;;;;6.33;2.60;;;;;;;17.22;53.58;99569.69;5109640;27;20580;-58
2023/03/13 03:36:39;;;;;;;7.47;2.23;;;;;;;17.18;53.71;99567.97;5110232;28;20193;-58
2023/03/13 03:39:04;;;;;;;4.77;1.83;;;;;;;17.13;53.59;99571.19;5110058;28;20186;-59
2023/03/13 03:41:30;;;;;;;7.40;1.97;;;;;;;17.15;53.73;99568.78;5109650;28;20188;-59
2023/03/13 03:43:55;;;;;;;5.97;2.20;;;;;;;17.13;53.63;99577.72;5110192;28;20200;-59
2023/03/13 03:46:21;;;;;;;5.53;1.90;;;;;;;17.12;53.70;99572.38;5110446;28;20567;-58
2023/03/13 03:48:46;;;;;;;12.70;2.53;;;;;;;17.17;53.48;99578.59;5108574;28;20202;-58
2023/03/13 03:51:11;;;;;;;4.93;2.10;;;;;;;17.15;53.58;99574.47;5106819;28;20200;-58
2023/03/13 03:53:37;;;;;;;10.33;2.33;;;;;;;17.16;53.47;99574.06;5110362;28;20166;-58
2023/03/13 03:56:02;;;;;;;13.50;2.30;;;;;;;17.16;53.55;99562.66;5110250;28;20162;-58
2023/03/13 03:58:28;;;;;;;7.13;2.37;;;;;;;17.18;53.22;99563.09;5109696;28;20165;-58
2023/03/13 04:00:55;;;;;;;8.43;2.53;;;;;;;17.18;53.85;99557.41;5109316;28;20189;-58
2023/03/13 04:03:21;;;;;;;5.43;2.10;;;;;;;17.17;53.52;99564.31;5108434;28;20644;-59
2023/03/13 04:05:46;;;;;;;4.43;2.20;;;;;;;17.17;53.35;99555.75;5088744;28;20510;-58
2023/03/13 04:08:11;;;;;;;8.60;2.20;;;;;;;17.17;53.79;99547.22;5089361;28;20186;-58
2023/03/13 04:10:37;;;;;;;4.83;1.97;;;;;;;17.16;53.57;99541.88;5107146;28;20174;-59
2023/03/13 04:13:02;;;;;;;6.03;2.00;;;;;;;17.16;53.35;99537.00;5110152;28;20173;-60
2023/03/13 04:15:28;;;;;;;5.80;2.20;;;;;;;17.16;53.55;99539.84;5111485;27;20185;-58
2023/03/13 04:17:53;;;;;;;5.70;2.93;;;;;;;17.14;53.68;99539.41;5110050;28;20546;-59
2023/03/13 04:20:19;;;;;;;4.80;2.03;;;;;;;17.15;53.58;99540.25;5110172;28;20605;-59
2023/03/13 04:22:44;;;;;;;9.57;2.47;;;;;;;17.15;53.52;99541.06;5108845;28;20549;-58
2023/03/13 04:25:10;;;;;;;6.30;2.20;;;;;;;17.15;53.49;99543.09;5110560;28;20158;-59
2023/03/13 04:27:35;;;;;;;5.90;2.10;;;;;;;17.12;53.47;99541.03;5110620;28;20590;-59
2023/03/13 04:30:00;;;;;;;7.07;2.70;;;;;;;17.15;53.34;99535.34;5111208;28;20193;-58
2023/03/13 04:32:26;;;;;;;5.17;2.10;;;;;;;17.16;53.52;99536.19;5116546;27;20560;-59
2023/03/13 04:34:51;;;;;;;9.20;2.87;;;;;;;17.17;53.58;99532.94;5114084;28;20223;-59
2023/03/13 04:37:17;;;;;;;6.17;2.17;;;;;;;17.21;53.31;99539.50;5112255;28;20174;-59
2023/03/13 04:39:42;;;;;;;5.03;2.00;;;;;;;17.23;53.32;99519.97;5115101;28;20165;-59
2023/03/13 04:42:09;;;;;;;4.83;2.10;;;;;;;17.21;53.41;99525.22;5113629;28;20207;-60
2023/03/13 04:44:34;;;;;;;4.30;1.90;;;;;;;17.21;53.20;99528.06;5113054;28;20184;-59
2023/03/13 04:47:00;;;;;;;5.63;2.00;;;;;;;17.22;53.62;99512.63;5113822;28;20404;-59
2023/03/13 04:49:25;;;;;;;4.53;2.20;;;;;;;17.19;53.27;99524.81;5111417;27;20594;-58
2023/03/13 04:51:51;;;;;;;6.97;1.80;;;;;;;17.17;53.24;99526.41;5106777;28;20744;-58
2023/03/13 04:54:16;;;;;;;5.73;2.27;;;;;;;17.23;53.46;99536.25;5112757;28;20182;-58
2023/03/13 04:56:42;;;;;;;5.90;2.07;;;;;;;17.20;53.44;99543.56;5113404;28;20162;-59
2023/03/13 04:59:08;;;;;;;6.60;2.10;;;;;;;17.15;53.54;99543.09;5112378;28;20281;-59
2023/03/13 05:01:33;;;;;;;5.80;1.90;;;;;;;17.10;53.74;99547.09;5112402;28;20181;-58
2023/03/13 05:03:59;;;;;;;7.83;1.73;;;;;;;17.13;53.72;99548.34;5112596;28;20812;-57
2023/03/13 05:06:24;;;;;;;4.50;1.67;;;;;;;17.12;53.59;99549.56;5112511;28;20196;-58
2023/03/13 05:08:50;;;;;;;5.00;1.70;;;;;;;17.13;53.64;99546.34;5112011;28;20186;-58
2023/03/13 05:11:15;;;;;;;6.30;2.00;;;;;;;17.14;53.51;99547.97;5112297;28;20221;-58
2023/03/13 05:13:40;;;;;;;5.10;2.27;;;;;;;17.14;53.44;99550.81;5116776;27;20318;-58
2023/03/13 05:16:06;;;;;;;5.80;1.90;;;;;;;17.14;53.38;99545.13;5111519;28;20774;-58
2023/03/13 05:18:32;;;;;;;4.10;2.03;;;;;;;17.15;53.37;99541.06;5110461;28;20186;-58
2023/03/13 05:20:57;;;;;;;4.67;1.70;;;;;;;17.16;53.52;99541.88;5111629;28;20222;-58
2023/03/13 05:23:22;;;;;;;5.53;2.00;;;;;;;17.13;53.51;99525.53;5109972;28;20184;-58
2023/03/13 05:25:48;;;;;;;4.80;1.70;;;;;;;17.18;53.28;99528.88;5112982;28;20189;-59
2023/03/13 05:28:13;;;;;;;5.73;1.80;;;;;;;17.14;53.64;99527.19;5112709;28;20181;-57
2023/03/13 05:30:39;;;;;;;3.90;1.30;;;;;;;17.16;53.75;99536.19;5112746;28;20174;-58
2023/03/13 05:33:04;;;;;;;5.77;1.80;;;;;;;17.16;53.61;99542.69;5111907;28;20196;-58
2023/03/13 05:35:29;;;;;;;4.60;1.80;;;;;;;17.16;53.32;99541.88;5114142;27;20200;-58
2023/03/13 05:37:55;;;;;;;6.90;2.70;;;;;;;17.15;53.66;99541.06;5111735;28;20173;-58
2023/03/13 05:40:20;;;;;;;4.20;2.03;;;;;;;17.15;53.66;99543.09;5112594;28;20245;-58
2023/03/13 05:42:46;;;;;;;3.37;1.47;;;;;;;17.18;53.57;99548.00;5111882;28;20579;-58
2023/03/13 05:45:11;;;;;;;6.07;2.20;;;;;;;17.17;53.70;99557.78;5111644;28;20186;-58
2023/03/13 05:47:37;;;;;;;6.03;1.77;;;;;;;17.14;53.64;99547.13;5112243;28;20752;-58
2023/03/13 05:50:04;;;;;;;3.23;1.50;;;;;;;17.14;53.50;99550.00;5111168;28;20574;-58
2023/03/13 05:52:29;;;;;;;4.10;1.60;;;;;;;17.15;53.59;99555.31;5112708;28;20165;-58
2023/03/13 05:54:55;;;;;;;3.67;1.63;;;;;;;17.14;53.51;99553.69;5112119;28;20427;-57
2023/03/13 05:57:20;;;;;;;4.37;1.57;;;;;;;17.13;53.46;99569.16;5111269;28;20189;-57
2023/03/13 05:59:45;;;;;;;4.60;1.63;;;;;;;17.18;53.88;99568.81;5111969;28;20162;-57
2023/03/13 06:02:11;;;;;;;6.33;1.97;;;;;;;17.19;53.48;99569.59;5111382;28;20188;-58
2023/03/13 06:04:36;;;;;;;10.13;2.47;;;;;;;17.18;53.43;99560.25;5107144;27;20569;-57
2023/03/13 06:07:02;;;;;;;5.57;1.60;;;;;;;17.20;53.37;99554.97;5097362;28;20656;-58
2023/03/13 06:09:27;;;;;;;8.30;3.40;;;;;;;17.14;53.73;99558.56;5112093;28;20197;-58
2023/03/13 06:11:53;;;;;;;4.20;1.77;;;;;;;17.16;53.54;99556.94;5111723;28;20623;-58
2023/03/13 06:14:18;;;;;;;3.53;1.33;;;;;;;17.15;53.20;99558.16;5109726;28;20649;-58
2023/03/13 06:16:44;;;;;;;6.73;1.73;;;;;;;17.14;53.74;99555.69;5111845;28;20348;-58
2023/03/13 06:19:10;;;;;;;6.27;1.97;;;;;;;17.14;53.87;99558.56;5110851;28;20238;-58
2023/03/13 06:21:36;;;;;;;3.80;1.83;;;;;;;17.12;53.79;99553.25;5111871;28;20166;-58
2023/03/13 06:24:01;;;;;;;5.73;1.57;;;;;;;17.13;53.73;99566.31;5113646;27;20419;-58
2023/03/13 06:26:26;;;;;;;3.53;1.53;;;;;;;17.13;53.70;99560.59;5110741;28;20190;-57
2023/03/13 06:28:52;;;;;;;4.47;1.37;;;;;;;17.14;53.77;99555.69;5111640;28;20641;-58
2023/03/13 06:31:17;;;;;;;4.27;1.83;;;;;;;17.15;53.80;99554.50;5110931;28;20517;-58
2023/03/13 06:33:43;;;;;;;4.20;1.80;;;;;;;17.13;53.69;99554.91;5111453;28;20800;-57
2023/03/13 06:36:08;;;;;;;4.40;1.80;;;;;;;17.16;53.61;99559.00;5110730;28;20173;-58
2023/03/13 06:38:34;;;;;;;6.73;2.30;;;;;;;17.14;53.57;99552.84;5111172;28;20204;-58
2023/03/13 06:40:59;;;;;;;4.00;1.43;;;;;;;17.17;53.40;99558.63;5113150;27;20546;-58
2023/03/13 06:43:25;;;;;;;4.00;1.70;;;;;;;17.17;53.42;99564.31;5109981;28;20190;-58
2023/03/13 06:45:50;;;;;;;8.00;2.23;;;;;;;17.17;53.63;99561.47;5110751;28;20178;-58
2023/03/13 06:48:16;;;;;;;4.10;1.37;;;;;;;17.15;53.57;99566.72;5109936;28;20196;-58
2023/03/13 06:50:41;;;;;;;4.13;1.40;;;;;;;17.15;53.54;99563.06;5110531;28;20193;-58
2023/03/13 06:53:08;;;;;;;4.90;2.00;;;;;;;17.17;53.72;99560.63;5109861;28;20174;-58
2023/03/13 06:55:33;;;;;;;7.13;2.17;;;;;;;17.18;53.64;99553.72;5109718;28;20877;-58
2023/03/13 06:57:59;;;;;;;4.47;1.20;;;;;;;17.15;53.83;99551.66;5110612;28;20443;-57
2023/03/13 07:00:24;;;;;;;4.90;1.67;;;;;;;17.15;53.67;99549.63;5110703;28;20197;-58
2023/03/13 07:02:50;;;;;;;5.37;1.67;;;;;;;17.15;53.58;99551.66;5109867;28;20166;-58
2023/03/13 07:05:15;;;;;;;2.97;1.37;;;;;;;17.14;53.84;99545.13;5101791;27;20202;-58
2023/03/13 07:07:41;;;;;;;5.53;1.80;;;;;;;17.15;53.51;99528.84;5111865;27;20194;-58
2023/03/13 07:10:09;;;;;;;4.10;1.77;;;;;;;17.16;53.76;99530.47;5107634;28;20209;-58
2023/03/13 07:12:34;;;;;;;3.83;1.40;;;;;;;17.17;53.46;99520.72;5109717;28;20546;-58
2023/03/13 07:15:00;;;;;;;5.33;1.80;;;;;;;17.16;53.58;99508.47;5109367;28;20898;-58
2023/03/13 07:17:25;;;;;;;7.03;1.70;;;;;;;17.12;53.50;99484.81;5108734;28;20182;-57
2023/03/13 07:19:51;;;;;;;5.93;1.80;;;;;;;17.14;53.97;99476.69;5109579;28;20188;-57
2023/03/13 07:22:16;;;;;;;5.93;1.47;;;;;;;17.17;53.67;99475.06;5108656;28;20185;-57
2023/03/13 07:24:42;;;;;;;3.97;1.77;;;;;;;17.14;53.68;99473.81;5110352;28;20185;-58
2023/03/13 07:27:07;;;;;;;2.50;1.33;;;;;;;17.16;53.72;99490.56;5109653;28;20173;-58
2023/03/13 07:29:32;;;;;;;4.80;1.63;;;;;;;17.16;53.39;99467.75;5110121;28;20205;-58
2023/03/13 07:31:58;;;;;;;3.63;1.50;;;;;;;17.14;53.74;99473.81;5093780;28;20186;-58
2023/03/13 07:34:23;;;;;;;4.23;1.47;;;;;;;17.15;53.64;99461.19;5100034;28;20660;-58
2023/03/13 07:36:49;;;;;;;4.53;1.53;;;;;;;17.15;53.42;99452.63;5109582;28;20173;-58
2023/03/13 07:39:14;;;;;;;3.90;1.60;;;;;;;17.16;53.83;99462.03;5109738;28;20165;-58
2023/03/13 07:41:40;;;;;;;4.53;1.50;;;;;;;17.17;53.41;99464.50;5110187;28;20255;-57
2023/03/13 07:44:06;;;;;;;5.37;1.60;;;;;;;17.15;53.56;99466.91;5110502;27;20169;-58
2023/03/13 07:46:31;;;;;;;2.80;1.30;;;;;;;17.15;53.52;99466.91;5110389;27;20942;-57
2023/03/13 07:48:57;;;;;;;4.23;1.53;;;;;;;17.16;53.56;99462.84;5110075;28;20197;-58
2023/03/13 07:51:23;;;;;;;3.37;1.60;;;;;;;17.17;53.59;99461.66;5109314;28;20533;-57
2023/03/13 07:53:49;;;;;;;4.40;1.73;;;;;;;17.15;53.69;99466.09;5109254;28;20173;-57
2023/03/13 07:56:16;;;;;;;5.77;1.57;;;;;;;17.15;53.85;99472.59;5109155;28;20429;-58
2023/03/13 07:58:42;;;;;;;3.57;1.20;;;;;;;17.15;53.84;99469.75;5106736;28;20552;-58
2023/03/13 08:01:18;;;;;;;5.23;1.77;;;;;;;17.16;53.51;99468.53;5108870;28;20502;-58
2023/03/13 08:03:44;;;;;;;3.23;1.57;;;;;;;17.15;53.65;99478.31;5107684;28;20232;-58
2023/03/13 08:06:11;;;;;;;4.83;1.80;;;;;;;17.15;53.42;99483.22;5091517;28;20500;-58
2023/03/13 08:08:36;;;;;;;3.37;1.40;;;;;;;17.15;53.48;99488.91;5089282;28;20451;-58
2023/03/13 08:11:03;;;;;;;4.17;1.80;;;;;;;17.16;53.66;99485.66;5096083;28;20517;-58
2023/03/13 08:13:29;;;;;;;4.20;1.40;;;;;;;17.15;53.56;99477.50;5109912;28;20625;-58
2023/03/13 08:16:06;;;;;;;2.60;1.47;;;;;;;17.15;53.47;99469.75;5109041;28;20441;-58
2023/03/13 08:18:35;;;;;;;3.47;1.40;;;;;;;17.15;53.41;99474.66;5108658;28;20195;-58
2023/03/13 08:21:13;;;;;;;3.57;1.33;;;;;;;17.15;53.88;99475.47;5112414;28;20430;-57
2023/03/13 08:23:38;;;;;;;3.40;1.37;;;;;;;17.15;53.46;99474.66;5109060;28;20948;-58
2023/03/13 08:26:11;;;;;;;3.77;1.50;;;;;;;17.17;53.80;99473.06;5109914;28;20411;-58
2023/03/13 08:28:37;;;;;;;3.07;1.57;;;;;;;17.15;53.76;99458.34;5109651;28;20170;-58
2023/03/13 08:31:16;;;;;;;4.00;1.50;;;;;;;17.17;53.70;99464.50;5108324;28;20433;-58
2023/03/13 08:33:42;;;;;;;4.77;1.70;;;;;;;17.16;53.46;99468.53;5109039;28;20189;-57
2023/03/13 08:36:16;;;;;;;3.10;1.40;;;;;;;17.16;53.64;99451.44;5111442;28;20450;-58
2023/03/13 08:38:43;;;;;;;4.20;1.50;;;;;;;17.18;53.79;99456.75;5108839;28;20881;-59
2023/03/13 08:41:09;;;;;;;4.83;1.87;;;;;;;17.16;53.40;99434.31;5109710;28;20496;-58
2023/03/13 08:43:34;;;;;;;4.33;1.50;;;;;;;17.18;53.63;99431.91;5109649;28;20412;-58
2023/03/13 08:45:59;;;;;;;4.83;1.40;;;;;;;17.18;53.71;99429.06;5109478;28;20165;-58
2023/03/13 08:48:25;;;;;;;2.50;1.20;;;;;;;17.17;53.62;99418.88;5108794;28;20182;-58
2023/03/13 08:51:04;;;;;;;3.17;1.27;;;;;;;17.16;53.71;99422.09;5109766;28;20158;-58
2023/03/13 08:53:29;;;;;;;2.53;1.47;;;;;;;17.25;53.43;99420.56;5107641;28;20267;-58
2023/03/13 08:55:55;;;;;;;6.70;1.60;;;;;;;17.23;53.39;99416.44;5090864;28;20426;-57
2023/03/13 08:58:20;;;;;;;3.70;1.60;;;;;;;17.24;53.39;99409.53;5088398;28;20218;-58
2023/03/13 09:00:45;;;;;;;4.53;1.60;;;;;;;17.22;53.62;99412.81;5092882;28;20219;-58
2023/03/13 09:03:11;;;;;;;4.03;1.67;;;;;;;17.23;53.50;99403.03;5108293;28;20166;-58
2023/03/13 09:05:37;;;;;;;4.17;1.73;;;;;;;17.21;53.54;99402.56;5108363;28;20848;-58
2023/03/13 09:08:02;;;;;;;5.40;1.93;;;;;;;17.23;53.65;99400.16;5108356;28;20176;-58
2023/03/13 09:10:28;;;;;;;3.70;1.73;;;;;;;17.23;53.50;99405.03;5102565;28;20463;-59
2023/03/13 09:12:53;;;;;;;4.53;1.70;;;;;;;17.23;53.68;99391.63;5104290;28;20222;-58
2023/03/13 09:15:19;;;;;;;8.40;1.43;;;;;;;17.21;53.61;99399.72;5109731;28;20165;-57
2023/03/13 09:17:44;;;;;;;2.73;1.10;;;;;;;17.26;53.54;99381.44;5111922;28;20672;-57
2023/03/13 09:20:10;;;;;;;2.87;0.97;;;;;;;17.24;53.63;99384.69;5106997;28;20173;-58
2023/03/13 09:22:35;;;;;;;3.37;1.40;;;;;;;17.26;53.53;99379.41;5112811;28;20678;-57
2023/03/13 09:25:01;;;;;;;3.50;1.30;;;;;;;17.29;53.36;99370.06;5111741;28;20177;-57
2023/03/13 09:27:27;;;;;;;3.97;1.33;;;;;;;17.22;53.78;99381.44;5111566;28;20169;-58
2023/03/13 09:29:53;;;;;;;5.90;1.43;;;;;;;17.22;53.57;99375.72;5112635;28;20197;-58
2023/03/13 09:32:19;;;;;;;4.60;1.67;;;;;;;17.18;53.70;99362.63;5111662;28;20177;-58
2023/03/13 09:34:45;;;;;;;3.93;1.70;;;;;;;17.18;53.63;99369.16;5112030;28;20415;-58
2023/03/13 09:37:10;;;;;;;2.63;1.30;;;;;;;17.19;53.65;99352.84;5112937;27;20933;-58
2023/03/13 09:39:36;;;;;;;3.83;1.20;;;;;;;17.19;53.50;99353.69;5113797;27;20415;-57
2023/03/13 09:42:23;;;;;;;4.57;1.30;;;;;;;17.21;53.63;99354.09;5112213;28;20174;-58
2023/03/13 09:44:55;;;;;;;3.80;1.50;;;;;;;17.22;53.68;99352.06;5110242;28;20266;-57
2023/03/13 09:47:42;;;;;;;3.83;1.90;;;;;;;17.20;53.85;99346.75;5110245;28;20441;-58
2023/03/13 09:50:32;;;;;;;2.97;1.40;;;;;;;17.21;53.81;99344.72;5090930;28;20931;-59
2023/03/13 09:53:02;;;;;;;4.53;1.67;;;;;;;17.25;53.52;99334.19;5090369;28;20541;-58
2023/03/13 09:55:29;;;;;;;3.50;1.37;;;;;;;17.22;53.75;99332.09;5111093;28;21004;-58
2023/03/13 09:57:59;;;;;;;4.30;1.70;;;;;;;17.21;53.54;99325.56;5112143;28;20411;-58
2023/03/13 10:00:36;;;;;;;3.30;1.50;;;;;;;17.25;53.74;99320.72;5111042;28;20450;-58
2023/03/13 10:03:10;;;;;;;3.87;1.10;;;;;;;17.24;53.44;99316.22;5110075;28;20415;-58
2023/03/13 10:05:38;;;;;;;3.53;1.80;;;;;;;17.21;53.72;99308.47;5110681;28;20518;-58
2023/03/13 10:08:14;;;;;;;2.67;1.40;;;;;;;17.21;53.63;99308.47;5112346;28;20400;-58
2023/03/13 10:11:02;;;;;;;2.80;1.20;;;;;;;17.23;53.79;99300.34;5111539;28;20965;-57
2023/03/13 10:13:57;;;;;;;7.20;1.73;;;;;;;17.33;53.14;99301.63;5110021;28;20435;-58
2023/03/13 10:16:27;;;;;;;2.93;1.33;;;;;;;17.31;53.25;99293.44;5110597;27;20876;-58
2023/03/13 10:18:55;;;;;;;3.47;1.30;;;;;;;17.32;53.24;99288.56;5093977;28;20455;-58
2023/03/13 10:21:22;;;;;;;2.63;1.27;;;;;;;17.38;53.16;99296.38;5111847;28;20427;-58
2023/03/13 10:23:49;;;;;;;4.20;1.37;;;;;;;17.42;53.21;99304.97;5103285;28;20436;-58
2023/03/13 10:26:17;;;;;;;3.00;1.27;;;;;;;17.44;53.05;99306.22;5110733;27;20423;-58
2023/03/13 10:28:42;;;;;;;5.20;1.30;;;;;;;17.41;53.22;99304.16;5110541;28;20491;-58
2023/03/13 10:31:16;;;;;;;3.57;1.13;;;;;;;17.38;53.38;99290.66;5091705;28;20473;-57
2023/03/13 10:33:41;;;;;;;3.17;1.10;;;;;;;17.36;52.73;99293.06;5109669;28;20644;-57
2023/03/13 10:36:09;;;;;;;3.87;1.47;;;;;;;17.40;53.14;99276.03;5109126;28;20444;-59
2023/03/13 10:38:53;;;;;;;5.43;1.73;;;;;;;17.45;53.02;99281.38;5113313;27;20174;-58
2023/03/13 10:41:30;;;;;;;5.53;1.07;;;;;;;17.40;52.92;99276.84;5110839;28;20510;-58
2023/03/13 10:44:02;;;;;;;4.67;1.40;;;;;;;17.38;53.14;99262.13;5110301;28;21215;-58
2023/03/13 10:46:32;;;;;;;4.73;1.40;;;;;;;17.40;53.48;99261.78;5111578;28;20400;-58
2023/03/13 10:49:00;;;;;;;3.60;1.53;;;;;;;17.37;53.49;99263.34;5110199;28;20478;-59
2023/03/13 10:51:36;;;;;;;3.87;1.27;;;;;;;17.37;53.21;99239.72;5109063;28;20546;-57
2023/03/13 10:54:22;;;;;;;3.87;1.30;;;;;;;17.43;53.00;99238.97;5104320;28;20442;-58
2023/03/13 10:56:49;;;;;;;3.07;1.33;;;;;;;17.37;53.29;99234.00;5109179;28;20932;-57
2023/03/13 10:59:24;;;;;;;6.63;1.60;;;;;;;17.39;53.05;99223.84;5109443;28;20404;-58
2023/03/13 11:01:50;;;;;;;3.67;1.27;;;;;;;17.33;53.31;99219.72;5085709;28;20428;-58
2023/03/13 11:04:29;;;;;;;4.70;1.53;;;;;;;17.30;53.18;99226.22;5099978;27;20523;-58
2023/03/13 11:07:25;;;;;;;2.97;1.30;;;;;;;17.25;53.49;99215.19;5108455;28;20481;-59
2023/03/13 11:09:57;;;;;;;3.30;1.07;;;;;;;17.24;53.97;99218.44;5103802;28;20573;-58
2023/03/13 11:12:22;;;;;;;3.23;1.27;;;;;;;17.26;53.64;99213.97;5108924;28;20529;-58
2023/03/13 11:14:49;;;;;;;5.50;1.60;;;;;;;17.29;53.43;99218.06;5109761;28;20443;-58
2023/03/13 11:17:32;;;;;;;4.57;1.50;;;;;;;17.30;53.45;99211.94;5091495;28;20243;-58
2023/03/13 11:20:21;;;;;;;3.57;1.50;;;;;;;17.36;53.53;99212.41;5108522;28;20438;-58
2023/03/13 11:23:04;;;;;;;2.60;1.10;;;;;;;17.34;53.45;99187.13;5109361;28;20473;-58
2023/03/13 11:25:45;;;;;;;3.27;1.07;;;;;;;17.37;53.17;99183.47;5106365;28;20458;-58
2023/03/13 11:28:19;;;;;;;4.10;1.60;;;;;;;17.36;53.22;99181.81;5108462;28;20424;-58
2023/03/13 11:31:05;;;;;;;3.47;1.20;;;;;;;17.34;53.75;99181.41;5107984;28;20454;-58
2023/03/13 11:33:33;;;;;;;2.77;1.30;;;;;;;17.43;53.32;99172.50;5074160;28;20440;-59
2023/03/13 11:36:08;;;;;;;2.80;1.20;;;;;;;17.59;52.72;99159.53;5109291;28;20516;-58